Latest Weather Observations for Ivanhoe Airport

IDN60801

Issued at 3:35 pm EST Saturday 30 August 2014 (issued every 30 minutes, with the page automatically refreshed every 10 minutes)

About weather observations | Map of weather stations | Latest weather observations for NSW | Other Formats
Station Details ID: 049000 Name: IVANHOE AERODROME AWS Lat: -32.88 Lon: 144.31 Height: 100.0 m
Data from the previous 72 hours. | See also: Recent months at Ivanhoe Airport
Date/Time
EST
Temp
°C
App
Temp
°C
Dew
Point
Rel
Hum
%
Delta-T
°C
Wind Press
QNH
hPa
Press
MSL
hPa
Rain
since 9 am
mm
Dir
 
Spd
km/h
Gust
km/h
Spd
kts
Gust
kts
30/03:30pm 23.8 20.2 0.8 22 10.7 SSW 9 15 5 8 1020.5 - 0.0
30/03:00pm 23.6 19.7 1.3 23 10.4 N 11 24 6 13 1020.6 1020.6 0.0
30/02:30pm 23.2 19.6 0.9 23 10.3 N 9 20 5 11 1021.1 - 0.0
30/02:00pm 23.3 19.9 1.6 24 10.2 NE 9 15 5 8 1021.4 1021.4 0.0
30/01:30pm 23.3 20.5 2.2 25 10.0 ESE 6 11 3 6 1021.8 - 0.0
30/01:00pm 22.9 19.2 2.4 26 9.7 NNW 11 19 6 10 1022.3 1022.4 0.0
30/12:30pm 22.9 19.3 2.9 27 9.6 N 11 19 6 10 1023.1 - 0.0
30/12:00pm 22.2 18.3 3.3 29 9.1 N 13 19 7 10 1023.5 1023.6 0.0
30/11:30am 21.4 17.9 3.6 31 8.6 NNE 11 20 6 11 1023.9 - 0.0
30/11:00am 21.1 17.4 4.2 33 8.2 NNE 13 20 7 11 1024.3 1024.4 0.0
30/10:30am 20.1 15.6 4.2 35 7.7 NNE 17 20 9 11 1024.6 - 0.0
30/10:00am 19.4 15.4 4.7 38 7.1 NE 15 20 8 11 1024.9 1025.0 0.0
30/09:30am 17.8 14.0 4.0 40 6.5 NNE 13 15 7 8 1025.1 - 0.0
30/09:00am 16.5 12.8 4.2 44 5.7 NNE 13 17 7 9 1025.2 1025.3 0.0
30/08:30am 14.0 10.9 3.8 50 4.7 NE 9 11 5 6 1025.1 - 0.0
30/08:00am 10.9 7.7 3.2 59 3.4 ENE 9 13 5 7 1025.0 1025.1 0.0
30/07:30am 9.1 5.9 2.9 65 2.7 NE 9 11 5 6 1024.8 - 0.0
30/07:00am 7.0 3.1 1.1 66 2.4 NE 11 13 6 7 1024.5 1024.6 0.0
30/06:30am 7.7 4.2 1.3 64 2.6 NE 9 11 5 6 1024.3 - 0.0
30/06:00am 7.3 4.2 1.2 65 2.5 SE 7 9 4 5 1024.0 1024.1 0.0
30/05:30am 7.7 4.8 1.5 65 2.5 SE 6 7 3 4 1023.7 - 0.0
30/05:00am 7.5 5.7 1.1 64 2.6 CALM 0 0 0 0 1023.7 1023.8 0.0
30/04:30am 7.6 5.4 0.8 62 2.7 SSE 2 9 1 5 1023.5 - 0.0
30/04:00am 8.6 6.8 1.3 60 3.0 CALM 0 4 0 2 1023.6 1023.7 0.0
30/03:30am 8.9 5.8 1.3 59 3.1 NW 7 9 4 5 1023.6 - 0.0
30/03:00am 8.6 5.1 1.1 59 3.0 WNW 9 11 5 6 1023.8 1023.9 0.0
30/02:30am 7.9 4.0 1.1 62 2.8 WNW 11 13 6 7 1024.0 - 0.0
30/02:00am 10.8 7.0 1.9 54 3.8 NE 11 13 6 7 1024.0 1024.1 0.0
30/01:30am 11.2 7.8 1.7 52 4.0 NNE 9 11 5 6 1024.1 - 0.0
30/01:00am 11.5 8.1 2.0 52 4.1 NE 9 11 5 6 1024.1 1024.2 0.0
30/12:30am 11.4 8.3 1.4 50 4.2 NE 7 9 4 5 1024.0 - 0.0
30/12:00am 12.2 8.0 1.8 49 4.4 NNE 13 15 7 8 1024.0 1024.1 0.0
 
Date/Time
EST
Temp
°C
App
Temp
°C
Dew
Point
Rel
Hum
%
Delta-T
°C
Wind Press
QNH
hPa
Press
MSL
hPa
Rain
since 9 am
mm
Dir
 
Spd
km/h
Gust
km/h
Spd
kts
Gust
kts
29/11:30pm 12.2 8.4 1.5 48 4.5 ENE 11 15 6 8 1024.1 - 0.0
29/11:00pm 13.8 10.4 1.8 44 5.2 NE 9 11 5 6 1024.1 1024.2 0.0
29/10:30pm 13.6 10.2 1.6 44 5.2 ENE 9 9 5 5 1024.2 - 0.0
29/10:00pm 13.6 9.8 1.6 44 5.2 ENE 11 13 6 7 1024.4 1024.5 0.0
29/09:30pm 14.8 11.8 1.7 41 5.8 ENE 7 9 4 5 1024.3 - 0.0
29/09:00pm 14.7 11.3 1.6 41 5.7 E 9 11 5 6 1024.3 1024.4 0.0
29/08:30pm 15.7 12.2 1.4 38 6.3 ESE 9 11 5 6 1024.5 - 0.0
29/08:00pm 17.3 13.7 0.9 33 7.2 SSE 9 11 5 6 1024.5 1024.6 0.0
29/07:30pm 17.4 15.6 1.4 34 7.1 CALM 0 0 0 0 1024.5 - 0.0
29/07:00pm 17.2 14.3 1.2 34 7.1 SSE 6 6 3 3 1024.2 1024.3 0.0
29/06:30pm 18.4 15.4 1.0 31 7.8 SSE 6 6 3 3 1024.1 - 0.0
29/06:00pm 20.3 17.2 1.2 28 8.7 S 7 9 4 5 1024.2 1024.3 0.0
29/05:30pm 22.1 20.0 1.7 26 9.5 S 2 11 1 6 1024.1 - 0.0
29/05:00pm 22.8 19.7 1.2 24 10.0 SSW 7 11 4 6 1024.0 1024.1 0.0
29/04:30pm 23.2 19.7 1.5 24 10.2 S 9 17 5 9 1024.0 - 0.0
29/04:00pm 22.9 19.1 1.8 25 9.9 SE 11 15 6 8 1024.0 1024.1 0.0
29/03:30pm 22.7 18.9 1.7 25 9.8 SSE 11 19 6 10 1024.2 - 0.0
29/03:00pm 23.0 20.3 2.5 26 9.7 SE 6 13 3 7 1024.4 1024.5 0.0
29/02:30pm 22.7 19.3 1.7 25 9.8 SE 9 17 5 9 1024.8 - 0.0
29/02:00pm 22.8 19.8 2.3 26 9.7 SSW 7 15 4 8 1025.1 1025.2 0.0
29/01:30pm 22.0 18.7 2.2 27 9.3 SW 9 17 5 9 1025.3 - 0.0
29/01:00pm 21.9 18.6 2.6 28 9.1 E 9 15 5 8 1025.8 1025.9 0.0
29/12:30pm 21.2 17.9 2.5 29 8.8 SE 9 17 5 9 1026.3 - 0.0
29/12:00pm 20.6 18.0 3.3 32 8.2 SSW 6 11 3 6 1027.0 1027.0 0.0
29/11:30am 20.2 17.6 4.3 35 7.7 ESE 7 11 4 6 1027.5 - 0.0
29/11:00am 19.8 18.2 4.3 36 7.4 WNW 2 7 1 4 1027.9 1027.9 0.0
29/10:30am 18.8 16.2 4.2 38 7.0 NW 7 13 4 7 1028.1 - 0.0
29/10:00am 18.0 15.5 4.6 41 6.4 N 7 11 4 6 1028.5 1028.5 0.0
29/09:30am 16.8 14.0 5.1 46 5.6 NE 9 11 5 6 1028.5 - 0.0
29/09:00am 15.5 13.1 5.4 51 4.8 NE 7 13 4 7 1028.6 1028.6 0.0
29/08:30am 13.6 11.1 5.0 56 4.0 NE 7 9 4 5 1028.4 - 0.0
29/08:00am 10.8 9.3 5.1 68 2.6 E 2 7 1 4 1028.3 1028.3 0.0
29/07:30am 8.5 6.0 4.5 76 1.8 E 7 7 4 4 1028.2 - 0.0
29/07:00am 6.6 3.8 3.4 80 1.3 E 7 9 4 5 1028.0 1028.0 0.0
29/06:30am 6.3 3.1 3.3 81 1.3 E 9 9 5 5 1027.6 - 0.0
29/06:00am 5.8 2.5 2.3 78 1.4 E 9 11 5 6 1027.3 1027.3 0.0
29/05:30am 6.5 3.3 2.8 77 1.5 ESE 9 11 5 6 1027.0 - 0.0
29/05:00am 6.6 3.8 3.0 78 1.5 SSE 7 7 4 4 1026.9 1026.9 0.0
29/04:30am 6.0 3.0 1.7 74 1.7 S 7 7 4 4 1027.0 - 0.0
29/04:00am 6.5 3.5 2.0 73 1.8 ENE 7 7 4 4 1026.9 1026.9 0.0
29/03:30am 6.7 3.7 2.0 72 1.9 ENE 7 7 4 4 1026.7 - 0.0
29/03:00am 6.9 4.2 2.4 73 1.9 ENE 6 6 3 3 1026.7 1026.8 0.0
29/02:30am 7.2 4.2 2.1 70 2.1 ENE 7 9 4 5 1026.9 - 0.0
29/02:00am 8.0 5.2 2.3 67 2.4 ENE 6 6 3 3 1027.0 1027.0 0.0
29/01:30am 10.1 7.3 3.2 62 3.0 ENE 7 7 4 4 1027.0 - 0.0
29/01:00am 10.7 7.5 3.3 60 3.2 ENE 9 9 5 5 1027.0 1027.0 0.0
29/12:30am 11.2 8.0 3.3 58 3.5 ENE 9 9 5 5 1027.1 - 0.0
29/12:00am 11.4 8.2 2.9 56 3.7 E 9 11 5 6 1027.1 1027.1 0.0
 
Date/Time
EST
Temp
°C
App
Temp
°C
Dew
Point
Rel
Hum
%
Delta-T
°C
Wind Press
QNH
hPa
Press
MSL
hPa
Rain
since 9 am
mm
Dir
 
Spd
km/h
Gust
km/h
Spd
kts
Gust
kts
28/11:30pm 11.8 8.6 3.3 56 3.8 E 9 13 5 7 1027.0 - 0.0
28/11:00pm 11.8 8.6 3.1 55 3.8 E 9 11 5 6 1027.1 1027.1 0.0
28/10:30pm 12.6 9.4 3.0 52 4.3 ESE 9 11 5 6 1027.3 - 0.0
28/10:00pm 12.9 9.4 3.3 52 4.3 ESE 11 13 6 7 1027.3 1027.3 0.0
28/09:30pm 12.9 9.3 3.0 51 4.4 ESE 11 11 6 6 1027.4 - 0.0
28/09:00pm 13.4 10.2 3.2 50 4.5 ESE 9 11 5 6 1027.2 1027.2 0.0
28/08:30pm 14.5 11.3 3.3 47 5.1 SE 9 11 5 6 1027.1 - 0.0
28/08:00pm 14.7 11.5 2.9 45 5.3 SE 9 11 5 6 1026.9 1026.9 0.0
28/07:30pm 15.6 12.3 2.7 42 5.8 SSE 9 11 5 6 1026.6 - 0.0
28/07:00pm 16.0 13.1 2.8 41 6.0 SSE 7 9 4 5 1026.4 1026.5 0.0
28/06:30pm 16.8 13.4 2.0 37 6.7 SE 9 9 5 5 1026.3 - 0.0
28/06:00pm 18.6 14.8 2.0 33 7.5 SE 11 15 6 8 1026.1 1026.2 0.0
28/05:30pm 20.6 16.1 2.4 30 8.5 SSE 15 20 8 11 1026.0 - 0.0
28/05:00pm 21.3 17.3 3.0 30 8.7 SSE 13 20 7 11 1025.7 1025.8 0.0
28/04:30pm 21.5 16.4 3.2 30 8.8 SSE 19 26 10 14 1025.6 - 0.0
28/04:00pm 21.9 16.7 3.6 30 8.8 SSE 20 28 11 15 1025.7 1025.8 0.0
28/03:30pm 21.7 17.0 3.4 30 8.8 SE 17 30 9 16 1025.7 - 0.0
28/03:00pm 21.8 16.8 3.5 30 8.8 SSE 19 30 10 16 1026.0 1026.1 0.0
28/02:30pm 21.7 17.9 3.9 31 8.6 SSE 13 28 7 15 1026.1 - 0.0
28/02:00pm 21.6 17.2 4.7 33 8.3 S 17 24 9 13 1026.2 1026.3 0.0
28/01:30pm 20.9 16.5 4.5 34 8.0 S 17 24 9 13 1026.5 - 0.0
28/01:00pm 20.6 16.1 4.2 34 7.9 S 17 28 9 15 1027.2 1027.2 0.0
28/12:30pm 19.6 16.0 4.9 38 7.2 S 13 20 7 11 1027.5 - 0.0
28/12:00pm 19.8 16.2 5.1 38 7.2 SSE 13 20 7 11 1027.9 1027.9 0.0
28/11:30am 19.2 16.7 4.6 38 7.1 E 7 13 4 7 1028.2 - 0.0
28/11:00am 18.4 14.9 3.5 37 7.0 E 11 17 6 9 1028.4 1028.4 0.0
28/10:30am 17.6 13.8 3.9 40 6.5 E 13 17 7 9 1028.6 - 0.0
28/10:00am 16.0 12.4 5.0 48 5.2 ENE 13 20 7 11 1028.8 1028.8 0.0
28/09:30am 15.4 11.6 5.6 52 4.7 ENE 15 20 8 11 1028.9 - 0.0
28/09:00am 14.3 10.1 5.9 57 4.0 ENE 17 22 9 12 1028.8 1028.8 0.0
28/08:30am 12.1 9.0 5.7 65 3.0 E 11 15 6 8 1028.6 - 0.0
28/08:00am 10.0 7.2 5.0 71 2.2 SE 9 11 5 6 1028.3 1028.3 0.0
28/07:30am 7.2 4.2 4.0 80 1.4 SE 9 11 5 6 1027.9 - 0.0
28/07:00am 6.3 3.1 3.1 80 1.3 SE 9 11 5 6 1027.7 1027.7 0.0
28/06:30am 6.8 3.3 3.6 80 1.4 ESE 11 13 6 7 1027.3 - 0.0
28/06:00am 7.1 3.6 3.7 79 1.4 ESE 11 13 6 7 1026.9 1026.9 0.0
28/05:30am 7.0 3.5 3.6 79 1.5 SE 11 11 6 6 1026.6 - 0.0
28/05:00am 6.8 3.2 3.1 77 1.5 SE 11 11 6 6 1026.4 1026.5 0.0
28/04:30am 7.2 3.6 3.1 75 1.7 SSE 11 11 6 6 1026.2 - 0.0
28/04:00am 7.2 3.6 2.9 74 1.8 SSE 11 11 6 6 1026.2 1026.3 0.0
28/03:30am 7.9 4.3 2.8 70 2.2 SSE 11 11 6 6 1026.3 - 0.0
28/03:00am 8.7 5.5 3.1 68 2.4 SSE 9 11 5 6 1026.3 1026.4 0.0
28/02:30am 9.3 5.8 3.3 66 2.6 SE 11 11 6 6 1026.3 - 0.0
28/02:00am 9.6 6.1 3.4 65 2.7 SE 11 13 6 7 1026.2 1026.3 0.0
28/01:30am 10.0 6.5 3.5 64 2.8 SE 11 13 6 7 1026.5 - 0.0
28/01:00am 9.7 5.7 3.0 63 2.9 SE 13 13 7 7 1026.4 1026.5 0.0
28/12:30am 10.0 6.0 3.1 62 3.0 SE 13 15 7 8 1026.4 - 0.0
28/12:00am 9.8 6.2 2.9 62 3.0 SSE 11 13 6 7 1026.5 1026.6 0.0
 
Date/Time
EST
Temp
°C
App
Temp
°C
Dew
Point
Rel
Hum
%
Delta-T
°C
Wind Press
QNH
hPa
Press
MSL
hPa
Rain
since 9 am
mm
Dir
 
Spd
km/h
Gust
km/h
Spd
kts
Gust
kts
27/11:30pm 10.4 6.8 3.0 60 3.2 SSE 11 11 6 6 1026.4 - 0.0
27/11:00pm 11.2 7.6 3.0 57 3.6 SSE 11 13 6 7 1026.3 1026.4 0.0
27/10:30pm 11.7 8.1 3.0 55 3.8 SE 11 13 6 7 1026.1 - 0.0
27/10:00pm 12.2 8.6 3.2 54 4.0 SE 11 11 6 6 1026.0 1026.1 0.0
27/09:30pm 12.8 9.2 3.2 52 4.3 SE 11 13 6 7 1026.0 - 0.0
27/09:00pm 14.2 10.3 3.4 48 4.9 SE 13 20 7 11 1025.9 1026.0 0.0
27/08:30pm 14.3 10.5 3.7 49 4.8 SE 13 15 7 8 1025.8 - 0.0
27/08:00pm 14.9 11.1 4.0 48 5.0 SE 13 15 7 8 1025.9 1026.0 0.0
27/07:30pm 16.1 12.3 3.9 44 5.7 SE 13 17 7 9 1025.5 - 0.0
27/07:00pm 16.6 12.8 4.0 43 5.9 SE 13 15 7 8 1025.2 1025.3 0.0
27/06:30pm 18.1 13.9 3.9 39 6.7 SE 15 19 8 10 1024.9 - 0.0
27/06:00pm 19.4 14.4 3.6 35 7.5 SE 19 24 10 13 1024.6 1024.7 0.0
27/05:30pm 20.5 15.4 4.1 34 7.9 SE 20 28 11 15 1024.2 - 0.0
27/05:00pm 21.2 16.1 4.3 33 8.2 SE 20 32 11 17 1023.8 1023.9 0.0
27/04:30pm 21.9 17.0 4.9 33 8.4 SE 20 28 11 15 1023.6 - 0.0
27/04:00pm 22.1 16.7 4.6 32 8.6 SE 22 30 12 16 1023.6 1023.7 0.0

Other Formats:

Comma delimited format used in spreadsheet applications
http://www.bom.gov.au/fwo/IDN60801/IDN60801.95697.axf

JavaScript Object Notation format (JSON) in row-major order
http://www.bom.gov.au/fwo/IDN60801/IDN60801.95697.json